createdAt,value
2019-03-26T00:02:43.473Z,5.70
2019-03-26T00:05:31.276Z,5.80
2019-03-26T00:08:19.237Z,5.60
2019-03-26T00:11:06.718Z,5.70
2019-03-26T00:13:57.431Z,5.70
2019-03-26T00:16:43.829Z,5.70
2019-03-26T00:19:31.332Z,5.60
2019-03-26T00:22:19.102Z,5.70
2019-03-26T00:25:07.616Z,5.70
2019-03-26T00:27:55.060Z,5.60
2019-03-26T00:30:42.876Z,5.70
2019-03-26T00:33:36.251Z,5.80
2019-03-26T00:36:20.308Z,5.70
2019-03-26T00:39:08.107Z,5.80
2019-03-26T00:41:56.086Z,5.80
2019-03-26T00:44:43.829Z,5.70
2019-03-26T00:47:31.637Z,5.80
2019-03-26T00:50:19.359Z,5.80
2019-03-26T00:53:06.829Z,5.70
2019-03-26T00:55:54.285Z,5.60
2019-03-26T00:58:42.420Z,5.60
2019-03-26T01:01:30.192Z,5.80
2019-03-26T01:04:18.165Z,5.80
2019-03-26T01:07:05.872Z,5.80
2019-03-26T01:09:54.093Z,5.80
2019-03-26T01:12:42.042Z,5.80
2019-03-26T01:15:30.075Z,5.90
2019-03-26T01:18:18.125Z,5.80
2019-03-26T01:21:06.102Z,5.80
2019-03-26T01:23:53.837Z,5.80
2019-03-26T01:26:41.554Z,5.90
2019-03-26T01:29:29.305Z,5.90
2019-03-26T01:32:17.188Z,5.80
2019-03-26T01:35:05.525Z,5.80
2019-03-26T01:37:53.405Z,5.80
2019-03-26T01:40:41.092Z,5.80
2019-03-26T01:43:29.307Z,6.00
2019-03-26T01:46:16.817Z,6.00
2019-03-26T01:49:04.368Z,5.80
2019-03-26T01:51:52.073Z,5.70
2019-03-26T01:54:40.094Z,5.90
2019-03-26T01:57:28.105Z,5.70
2019-03-26T02:00:16.036Z,5.60
2019-03-26T02:03:03.873Z,5.60
2019-03-26T02:05:51.733Z,5.70
2019-03-26T02:08:39.425Z,5.70
2019-03-26T02:11:26.913Z,5.70
2019-03-26T02:14:14.933Z,5.70
2019-03-26T02:17:02.664Z,5.70
2019-03-26T02:19:50.633Z,5.70
2019-03-26T02:22:38.149Z,5.80
2019-03-26T02:25:26.217Z,5.80
2019-03-26T02:28:13.760Z,5.90
2019-03-26T02:31:01.501Z,5.90
2019-03-26T02:33:49.449Z,5.90
2019-03-26T02:36:37.477Z,5.90
2019-03-26T02:39:25.493Z,5.90
2019-03-26T02:42:13.281Z,5.50
2019-03-26T02:45:01.255Z,5.70
2019-03-26T02:47:49.156Z,5.80
2019-03-26T02:50:37.003Z,5.70
2019-03-26T02:53:24.973Z,5.70
2019-03-26T02:56:12.432Z,5.80
2019-03-26T02:59:00.555Z,5.80
2019-03-26T03:01:48.793Z,5.60
2019-03-26T03:04:36.894Z,5.60
2019-03-26T03:07:24.705Z,5.60
2019-03-26T03:10:12.477Z,5.70
2019-03-26T03:13:00.214Z,5.70
2019-03-26T03:15:48.218Z,5.50
2019-03-26T03:18:35.678Z,5.60
2019-03-26T03:21:23.272Z,5.50
2019-03-26T03:24:11.005Z,5.50
2019-03-26T03:26:58.473Z,5.40
2019-03-26T03:29:46.285Z,5.50
2019-03-26T03:32:34.213Z,5.50
2019-03-26T03:35:21.959Z,5.50
2019-03-26T03:38:09.960Z,5.60
2019-03-26T03:40:57.790Z,5.50
2019-03-26T03:43:45.700Z,5.60
2019-03-26T03:46:33.946Z,5.70
2019-03-26T03:49:24.287Z,5.60
2019-03-26T03:52:13.440Z,5.60
2019-03-26T03:55:01.098Z,5.60
2019-03-26T03:57:52.918Z,5.50
2019-03-26T04:00:42.188Z,5.60
2019-03-26T04:03:30.105Z,5.60
2019-03-26T04:06:18.046Z,5.50
2019-03-26T04:09:06.662Z,5.60
2019-03-26T04:11:54.461Z,5.60
2019-03-26T04:14:42.481Z,5.50
2019-03-26T04:17:29.984Z,5.60
2019-03-26T04:20:18.026Z,5.60
2019-03-26T04:23:06.575Z,5.60
2019-03-26T04:25:54.117Z,5.60
2019-03-26T04:28:41.845Z,5.60
2019-03-26T04:31:29.587Z,5.70
2019-03-26T04:34:17.442Z,5.60
2019-03-26T04:37:04.876Z,5.50
2019-03-26T04:39:52.333Z,5.60
2019-03-26T04:42:40.150Z,5.60
2019-03-26T04:45:27.849Z,5.60
2019-03-26T04:48:15.582Z,5.60
2019-03-26T04:51:03.321Z,5.70
2019-03-26T04:53:51.133Z,5.60
2019-03-26T04:56:39.050Z,5.70
2019-03-26T04:59:27.070Z,5.70
2019-03-26T05:02:15.066Z,5.70
2019-03-26T05:05:02.603Z,5.60
2019-03-26T05:07:50.357Z,5.70
2019-03-26T05:10:38.329Z,5.60
2019-03-26T05:13:26.069Z,5.60
2019-03-26T05:16:13.717Z,5.70
2019-03-26T05:19:01.474Z,5.50
2019-03-26T05:21:49.173Z,5.60
2019-03-26T05:24:37.165Z,5.60
2019-03-26T05:27:24.992Z,5.60
2019-03-26T05:30:12.877Z,5.70
2019-03-26T05:33:00.652Z,5.70
2019-03-26T05:35:48.202Z,5.70
2019-03-26T05:38:36.381Z,5.70
2019-03-26T05:41:24.345Z,5.70
2019-03-26T05:44:11.801Z,5.80
2019-03-26T05:47:01.694Z,5.70
2019-03-26T05:49:49.364Z,5.70
2019-03-26T05:52:37.582Z,5.70
2019-03-26T05:55:25.297Z,5.80
2019-03-26T05:58:13.217Z,5.80
2019-03-26T06:01:01.438Z,5.80
2019-03-26T06:03:49.248Z,5.80
2019-03-26T06:06:37.292Z,5.80
2019-03-26T06:09:25.024Z,5.90
2019-03-26T06:12:13.116Z,5.80
2019-03-26T06:15:00.582Z,5.90
2019-03-26T06:17:48.244Z,5.90
2019-03-26T06:20:36.306Z,5.90
2019-03-26T06:23:23.970Z,5.90
2019-03-26T06:26:11.952Z,5.90
2019-03-26T06:29:01.241Z,5.90
2019-03-26T06:31:48.910Z,5.90
2019-03-26T06:34:37.132Z,5.90
2019-03-26T06:37:25.209Z,5.90
2019-03-26T06:40:13.645Z,5.90
2019-03-26T06:43:01.616Z,5.90
2019-03-26T06:45:49.734Z,6.00
2019-03-26T06:48:37.192Z,6.10
2019-03-26T06:51:24.929Z,6.00
2019-03-26T06:54:12.779Z,6.10
2019-03-26T06:57:00.689Z,6.10
2019-03-26T06:59:48.705Z,6.20
2019-03-26T07:02:36.976Z,6.20
2019-03-26T07:05:24.977Z,6.30
2019-03-26T07:08:12.908Z,6.30
2019-03-26T07:11:00.389Z,6.40
2019-03-26T07:13:48.121Z,6.40
2019-03-26T07:16:36.094Z,6.40
2019-03-26T07:19:23.693Z,6.60
2019-03-26T07:22:11.777Z,6.60
2019-03-26T07:24:59.245Z,6.60
2019-03-26T07:27:47.400Z,6.60
2019-03-26T07:30:42.672Z,6.60
2019-03-26T07:33:30.441Z,6.80
2019-03-26T07:36:18.272Z,7.00
2019-03-26T07:39:07.913Z,7.00
2019-03-26T07:41:55.633Z,7.00
2019-03-26T07:44:45.395Z,6.80
2019-03-26T07:47:32.609Z,6.80
2019-03-26T07:50:20.394Z,6.80
2019-03-26T07:53:08.234Z,7.00
2019-03-26T07:55:55.737Z,7.00
2019-03-26T07:58:43.350Z,7.00
2019-03-26T08:01:31.080Z,7.20
2019-03-26T08:04:18.565Z,7.20
2019-03-26T08:07:06.072Z,7.30
2019-03-26T08:09:53.944Z,7.30
2019-03-26T08:12:41.946Z,7.50
2019-03-26T08:15:30.049Z,7.70
2019-03-26T08:18:18.113Z,7.80
2019-03-26T08:21:06.291Z,7.80
2019-03-26T08:23:54.001Z,8.00
2019-03-26T08:26:41.703Z,8.10
2019-03-26T08:29:29.773Z,8.10
2019-03-26T08:32:17.632Z,8.20
2019-03-26T08:35:05.781Z,8.30
2019-03-26T08:37:53.544Z,8.30
2019-03-26T08:40:41.592Z,8.50
2019-03-26T08:43:29.145Z,8.80
2019-03-26T08:46:17.145Z,8.80
2019-03-26T08:49:04.629Z,8.90
2019-03-26T08:51:52.098Z,8.90
2019-03-26T08:54:39.833Z,8.80
2019-03-26T08:57:27.353Z,8.40
2019-03-26T09:00:15.232Z,8.70
2019-03-26T09:03:03.353Z,8.50
2019-03-26T09:05:50.985Z,8.50
2019-03-26T09:08:38.806Z,8.40
2019-03-26T09:11:26.604Z,8.20
2019-03-26T09:14:14.284Z,8.00
2019-03-26T09:17:02.018Z,8.30
2019-03-26T09:19:49.529Z,8.10
2019-03-26T09:22:37.025Z,8.10
2019-03-26T09:25:24.837Z,8.00
2019-03-26T09:28:12.844Z,8.20
2019-03-26T09:31:00.523Z,8.20
2019-03-26T09:33:48.344Z,8.40
2019-03-26T09:36:36.450Z,8.30
2019-03-26T09:39:23.921Z,8.40
2019-03-26T09:42:11.641Z,8.40
2019-03-26T09:44:59.169Z,8.60
2019-03-26T09:47:47.138Z,8.50
2019-03-26T09:50:36.277Z,8.50
2019-03-26T09:53:23.991Z,8.60
2019-03-26T09:56:11.504Z,8.50
2019-03-26T09:58:59.012Z,8.30
2019-03-26T10:01:47.017Z,8.20
2019-03-26T10:04:34.999Z,8.10
2019-03-26T10:07:23.155Z,8.20
2019-03-26T10:10:11.221Z,8.30
2019-03-26T10:12:58.972Z,8.30
2019-03-26T10:15:47.005Z,8.40
2019-03-26T10:18:34.565Z,8.30
2019-03-26T10:21:22.289Z,8.00
2019-03-26T10:24:10.042Z,8.20
2019-03-26T10:26:57.909Z,8.20
2019-03-26T10:29:45.516Z,8.20
2019-03-26T10:32:33.692Z,8.10
2019-03-26T10:35:21.517Z,8.10
2019-03-26T10:38:09.352Z,8.20
2019-03-26T10:40:57.249Z,8.40
2019-03-26T10:43:44.760Z,8.30
2019-03-26T10:46:32.489Z,8.40
2019-03-26T10:49:20.513Z,8.30
2019-03-26T10:52:08.447Z,8.50
2019-03-26T10:54:56.473Z,8.60
2019-03-26T10:57:44.463Z,8.70
2019-03-26T11:00:32.589Z,8.70
2019-03-26T11:03:20.557Z,8.70
2019-03-26T11:06:08.313Z,8.70
2019-03-26T11:08:55.834Z,8.70
2019-03-26T11:11:43.622Z,8.80
2019-03-26T11:14:31.916Z,8.80
2019-03-26T11:17:19.532Z,8.60
2019-03-26T11:20:07.689Z,8.70
2019-03-26T11:22:55.712Z,8.70
2019-03-26T11:25:43.902Z,8.60
2019-03-26T11:28:31.873Z,8.60
2019-03-26T11:31:19.709Z,8.60
2019-03-26T11:34:07.209Z,8.60
2019-03-26T11:36:55.484Z,8.60
2019-03-26T11:39:43.563Z,8.50
2019-03-26T11:42:31.025Z,8.70
2019-03-26T11:45:20.197Z,8.70
2019-03-26T11:48:08.380Z,8.50
2019-03-26T11:50:56.044Z,8.50
2019-03-26T11:53:43.665Z,8.50
2019-03-26T11:56:31.441Z,8.60
2019-03-26T11:59:19.320Z,8.70
2019-03-26T12:02:08.707Z,8.50
2019-03-26T12:04:56.424Z,8.50
2019-03-26T12:07:44.370Z,8.60
2019-03-26T12:10:32.505Z,8.50
2019-03-26T12:13:20.196Z,8.60
2019-03-26T12:16:07.681Z,8.60
2019-03-26T12:18:55.181Z,8.70
2019-03-26T12:21:43.165Z,8.80
2019-03-26T12:24:30.941Z,8.70
2019-03-26T12:27:18.673Z,8.60
2019-03-26T12:30:06.929Z,8.60
2019-03-26T12:32:55.021Z,8.60
2019-03-26T12:35:42.497Z,8.60
2019-03-26T12:38:29.957Z,8.40
2019-03-26T12:41:17.933Z,8.60
2019-03-26T12:44:05.923Z,8.30
2019-03-26T12:46:53.454Z,8.30
2019-03-26T12:49:41.397Z,8.40
2019-03-26T12:52:29.192Z,8.60
2019-03-26T12:55:16.990Z,8.60
2019-03-26T12:58:04.468Z,8.60
2019-03-26T13:00:51.926Z,8.70
2019-03-26T13:03:40.018Z,8.50
2019-03-26T13:06:27.502Z,8.50
2019-03-26T13:09:15.302Z,8.30
2019-03-26T13:12:03.333Z,8.30
2019-03-26T13:14:51.233Z,8.40
2019-03-26T13:17:38.721Z,8.20
2019-03-26T13:20:26.748Z,8.40
2019-03-26T13:23:14.579Z,8.30
2019-03-26T13:26:02.287Z,8.40
2019-03-26T13:28:50.113Z,8.50
2019-03-26T13:31:38.089Z,8.40
2019-03-26T13:34:26.165Z,8.30
2019-03-26T13:37:14.266Z,8.50
2019-03-26T13:40:02.245Z,8.60
2019-03-26T13:42:49.921Z,8.60
2019-03-26T13:45:38.128Z,8.70
2019-03-26T13:48:26.344Z,8.70
2019-03-26T13:51:13.809Z,8.80
2019-03-26T13:54:01.781Z,8.90
2019-03-26T13:56:49.803Z,8.90
2019-03-26T13:59:37.360Z,8.70
2019-03-26T14:02:25.429Z,8.90
2019-03-26T14:05:24.057Z,8.90
2019-03-26T14:08:11.848Z,8.90
2019-03-26T14:10:59.345Z,8.90
2019-03-26T14:13:47.122Z,8.90
2019-03-26T14:16:34.921Z,8.80
2019-03-26T14:19:22.920Z,9.00
2019-03-26T14:22:10.848Z,9.10
2019-03-26T14:24:58.292Z,9.10
2019-03-26T14:27:45.849Z,9.10
2019-03-26T14:30:41.327Z,9.20
2019-03-26T14:33:28.944Z,9.20
2019-03-26T14:36:16.435Z,9.20
2019-03-26T14:39:05.795Z,9.30
2019-03-26T14:41:53.565Z,9.30
2019-03-26T14:44:41.161Z,9.20
2019-03-26T14:47:28.619Z,9.30
2019-03-26T14:50:16.401Z,9.20
2019-03-26T14:53:04.519Z,9.20
2019-03-26T14:55:52.737Z,9.10
2019-03-26T14:58:40.549Z,9.20
2019-03-26T15:01:28.586Z,9.20
2019-03-26T15:04:16.429Z,9.20
2019-03-26T15:07:04.417Z,9.20
2019-03-26T15:09:52.229Z,9.10
2019-03-26T15:12:40.293Z,9.30
2019-03-26T15:15:27.856Z,9.20
2019-03-26T15:18:15.713Z,9.10
2019-03-26T15:21:03.546Z,9.30
2019-03-26T15:23:51.617Z,9.20
2019-03-26T15:26:39.745Z,9.30
2019-03-26T15:29:27.975Z,9.30
2019-03-26T15:32:15.537Z,9.20
2019-03-26T15:35:03.394Z,9.20
2019-03-26T15:37:51.473Z,9.20
2019-03-26T15:40:39.137Z,9.10
2019-03-26T15:43:26.963Z,9.30
2019-03-26T15:46:14.657Z,9.40
2019-03-26T15:49:02.728Z,9.30
2019-03-26T15:51:50.181Z,9.30
2019-03-26T15:54:38.197Z,9.00
2019-03-26T15:57:25.761Z,9.20
2019-03-26T16:00:14.969Z,9.30
2019-03-26T16:03:02.529Z,9.20
2019-03-26T16:05:50.336Z,9.20
2019-03-26T16:08:38.061Z,9.00
2019-03-26T16:11:35.556Z,8.90
2019-03-26T16:14:15.177Z,8.90
2019-03-26T16:17:02.938Z,8.70
2019-03-26T16:19:50.880Z,8.80
2019-03-26T16:22:39.013Z,8.70
2019-03-26T16:25:26.925Z,8.70
2019-03-26T16:28:14.933Z,8.80
2019-03-26T16:31:02.928Z,8.80
2019-03-26T16:33:50.437Z,8.90
2019-03-26T16:36:38.499Z,8.80
2019-03-26T16:39:26.268Z,8.60
2019-03-26T16:42:14.222Z,8.70
2019-03-26T16:45:02.221Z,8.80
2019-03-26T16:47:50.002Z,8.80
2019-03-26T16:50:38.033Z,8.70
2019-03-26T16:53:25.768Z,8.80
2019-03-26T16:56:13.273Z,8.80
2019-03-26T16:59:01.230Z,8.70
2019-03-26T17:01:48.777Z,8.60
2019-03-26T17:04:36.628Z,8.70
2019-03-26T17:07:24.573Z,8.70
2019-03-26T17:10:12.444Z,8.70
2019-03-26T17:13:00.291Z,8.60
2019-03-26T17:15:47.749Z,8.70
2019-03-26T17:18:35.664Z,8.60
2019-03-26T17:21:23.428Z,8.70
2019-03-26T17:24:11.436Z,8.60
2019-03-26T17:26:59.161Z,8.60
2019-03-26T17:29:46.775Z,8.60
2019-03-26T17:32:34.492Z,8.60
2019-03-26T17:35:21.944Z,8.60
2019-03-26T17:38:09.810Z,8.70
2019-03-26T17:40:57.661Z,8.50
2019-03-26T17:43:45.131Z,8.60
2019-03-26T17:46:32.609Z,8.60
2019-03-26T17:49:20.058Z,8.60
2019-03-26T17:52:07.529Z,8.70
2019-03-26T17:54:55.009Z,8.70
2019-03-26T17:57:42.763Z,8.60
2019-03-26T18:00:39.402Z,8.60
2019-03-26T18:03:27.255Z,8.60
2019-03-26T18:06:14.845Z,8.50
2019-03-26T18:09:02.451Z,8.50
2019-03-26T18:11:51.348Z,8.50
2019-03-26T18:14:39.413Z,8.50
2019-03-26T18:17:26.968Z,8.40
2019-03-26T18:20:15.086Z,8.40
2019-03-26T18:23:03.149Z,8.40
2019-03-26T18:25:50.821Z,8.40
2019-03-26T18:28:38.661Z,8.40
2019-03-26T18:31:26.763Z,8.40
2019-03-26T18:34:14.809Z,8.40
2019-03-26T18:37:02.820Z,8.40
2019-03-26T18:39:50.636Z,8.40
2019-03-26T18:42:43.817Z,8.40
2019-03-26T18:45:28.091Z,8.30
2019-03-26T18:48:15.852Z,8.30
2019-03-26T18:51:03.878Z,8.40
2019-03-26T18:53:51.589Z,8.40
2019-03-26T18:56:39.581Z,8.40
2019-03-26T18:59:27.049Z,8.40
2019-03-26T19:02:15.137Z,8.40
2019-03-26T19:05:02.661Z,8.40
2019-03-26T19:07:50.513Z,8.40
2019-03-26T19:10:38.635Z,8.30
2019-03-26T19:13:26.397Z,8.30
2019-03-26T19:16:14.484Z,8.30
2019-03-26T19:19:01.957Z,8.20
2019-03-26T19:21:50.012Z,8.10
2019-03-26T19:24:37.996Z,8.00
2019-03-26T19:27:25.770Z,8.00
2019-03-26T19:30:13.973Z,8.00
2019-03-26T19:33:01.982Z,7.90
2019-03-26T19:35:49.841Z,8.00
2019-03-26T19:38:37.608Z,8.00
2019-03-26T19:41:25.629Z,8.00
2019-03-26T19:44:13.306Z,7.90
2019-03-26T19:47:00.949Z,7.90
2019-03-26T19:49:48.802Z,8.00
2019-03-26T19:52:36.909Z,7.80
2019-03-26T19:55:24.492Z,7.90
2019-03-26T19:58:12.393Z,7.90
2019-03-26T20:01:00.467Z,7.90
2019-03-26T20:03:48.141Z,8.00
2019-03-26T20:06:36.141Z,7.80
2019-03-26T20:09:23.953Z,7.80
2019-03-26T20:12:11.698Z,7.70
2019-03-26T20:14:59.202Z,7.70
2019-03-26T20:17:46.701Z,7.70
2019-03-26T20:20:34.158Z,7.70
2019-03-26T20:23:21.889Z,7.70
2019-03-26T20:26:09.661Z,7.60
2019-03-26T20:28:57.529Z,7.80
2019-03-26T20:31:45.316Z,7.70
2019-03-26T20:34:32.918Z,7.70
2019-03-26T20:37:20.937Z,7.60
2019-03-26T20:40:11.329Z,7.70
2019-03-26T20:42:59.141Z,7.80
2019-03-26T20:45:46.888Z,7.70
2019-03-26T20:48:34.620Z,7.80
2019-03-26T20:51:22.672Z,7.70
2019-03-26T20:54:10.480Z,7.80
2019-03-26T20:56:58.406Z,7.80
2019-03-26T20:59:46.597Z,7.80
2019-03-26T21:02:34.368Z,7.80
2019-03-26T21:05:21.881Z,7.80
2019-03-26T21:08:10.001Z,7.80
2019-03-26T21:10:57.785Z,7.80
2019-03-26T21:13:50.923Z,7.80
2019-03-26T21:16:35.269Z,7.80
2019-03-26T21:19:23.241Z,7.80
2019-03-26T21:22:10.736Z,7.80
2019-03-26T21:24:58.490Z,7.70
2019-03-26T21:27:46.014Z,7.80
2019-03-26T21:30:33.793Z,7.80
2019-03-26T21:33:21.296Z,7.80
2019-03-26T21:36:08.772Z,7.80
2019-03-26T21:38:56.512Z,7.80
2019-03-26T21:41:44.476Z,7.80
2019-03-26T21:44:32.185Z,7.80
2019-03-26T21:47:20.257Z,7.80
2019-03-26T21:50:08.409Z,7.70
2019-03-26T21:52:56.181Z,7.70
2019-03-26T21:55:43.887Z,7.70
2019-03-26T21:58:31.980Z,7.70
2019-03-26T22:01:19.792Z,7.80
2019-03-26T22:04:07.796Z,7.60
2019-03-26T22:06:55.288Z,7.50
2019-03-26T22:09:43.521Z,7.50
2019-03-26T22:12:31.053Z,7.50
2019-03-26T22:15:19.307Z,7.50
2019-03-26T22:18:07.252Z,7.50
2019-03-26T22:20:55.384Z,7.60
2019-03-26T22:23:43.109Z,7.60
2019-03-26T22:26:31.153Z,7.60
2019-03-26T22:29:19.113Z,7.60
2019-03-26T22:32:07.000Z,7.60
2019-03-26T22:34:54.460Z,7.50
2019-03-26T22:37:42.241Z,7.50
2019-03-26T22:40:29.998Z,7.30
2019-03-26T22:43:17.622Z,7.40
2019-03-26T22:46:05.324Z,7.40
2019-03-26T22:48:53.105Z,7.40
2019-03-26T22:51:40.553Z,7.50
2019-03-26T22:54:28.261Z,7.50
2019-03-26T22:57:15.991Z,7.40
2019-03-26T23:00:04.804Z,7.40
2019-03-26T23:02:52.629Z,7.50
2019-03-26T23:05:40.461Z,7.50
2019-03-26T23:08:28.200Z,7.50
2019-03-26T23:11:16.106Z,7.50
2019-03-26T23:14:04.379Z,7.40
2019-03-26T23:16:52.224Z,7.30
2019-03-26T23:19:40.029Z,7.20
2019-03-26T23:22:28.088Z,7.30
2019-03-26T23:25:15.878Z,7.40
2019-03-26T23:28:03.659Z,7.40
2019-03-26T23:30:51.371Z,7.30
2019-03-26T23:33:39.150Z,7.30
2019-03-26T23:36:27.277Z,7.30
2019-03-26T23:39:15.006Z,7.20
2019-03-26T23:42:02.713Z,7.10
2019-03-26T23:44:58.166Z,7.20
2019-03-26T23:47:39.845Z,7.20
2019-03-26T23:50:27.898Z,7.10
2019-03-26T23:53:15.873Z,7.10
2019-03-26T23:56:03.648Z,7.30
2019-03-26T23:58:51.429Z,7.20
